createdAt,value
2018-09-17T00:00:53.742Z,10.43
2018-09-17T00:03:21.937Z,10.18
2018-09-17T00:05:56.790Z,10.98
2018-09-17T00:08:25.003Z,11.12
2018-09-17T00:10:53.207Z,9.83
2018-09-17T00:13:21.425Z,10.45
2018-09-17T00:15:49.604Z,10.38
2018-09-17T00:18:17.787Z,9.90
2018-09-17T00:20:45.968Z,10.55
2018-09-17T00:23:14.183Z,10.50
2018-09-17T00:25:42.378Z,9.70
2018-09-17T00:28:10.608Z,9.33
2018-09-17T00:30:38.817Z,10.10
2018-09-17T00:33:07.019Z,9.75
2018-09-17T00:35:35.236Z,9.38
2018-09-17T00:38:03.465Z,9.10
2018-09-17T00:40:31.691Z,9.73
2018-09-17T00:42:59.885Z,10.15
2018-09-17T00:45:28.091Z,9.70
2018-09-17T00:47:56.274Z,10.75
2018-09-17T00:50:24.479Z,9.80
2018-09-17T00:52:52.675Z,10.30
2018-09-17T00:55:20.879Z,10.43
2018-09-17T00:57:49.123Z,9.68
2018-09-17T01:00:17.627Z,10.15
2018-09-17T01:02:45.818Z,11.22
2018-09-17T01:05:14.284Z,10.90
2018-09-17T01:07:42.464Z,11.38
2018-09-17T01:10:10.642Z,11.48
2018-09-17T01:12:38.823Z,11.12
2018-09-17T01:15:07.020Z,12.05
2018-09-17T01:17:35.216Z,10.90
2018-09-17T01:20:03.388Z,12.43
2018-09-17T01:22:31.600Z,10.95
2018-09-17T01:24:59.800Z,13.00
2018-09-17T01:27:27.989Z,10.38
2018-09-17T01:29:56.181Z,11.15
2018-09-17T01:32:24.428Z,10.48
2018-09-17T01:34:52.646Z,11.22
2018-09-17T01:37:20.842Z,11.00
2018-09-17T01:39:49.053Z,11.03
2018-09-17T01:42:17.258Z,10.32
2018-09-17T01:44:45.443Z,10.65
2018-09-17T01:47:13.613Z,10.75
2018-09-17T01:49:41.815Z,10.70
2018-09-17T01:52:10.022Z,10.88
2018-09-17T01:54:38.235Z,10.60
2018-09-17T01:57:06.454Z,12.18
2018-09-17T01:59:34.647Z,10.98
2018-09-17T02:02:02.830Z,11.08
2018-09-17T02:04:31.052Z,11.18
2018-09-17T02:06:59.245Z,12.25
2018-09-17T02:09:27.422Z,12.75
2018-09-17T02:11:55.622Z,12.98
2018-09-17T02:14:23.814Z,12.50
2018-09-17T02:16:52.002Z,11.35
2018-09-17T02:19:20.190Z,12.45
2018-09-17T02:21:48.411Z,12.25
2018-09-17T02:24:16.621Z,12.63
2018-09-17T02:26:44.911Z,12.73
2018-09-17T02:29:13.181Z,12.18
2018-09-17T02:31:41.374Z,11.28
2018-09-17T02:34:09.555Z,11.60
2018-09-17T02:36:37.778Z,11.28
2018-09-17T02:39:06.968Z,11.78
2018-09-17T02:41:35.200Z,11.80
2018-09-17T02:44:03.383Z,11.63
2018-09-17T02:46:31.669Z,11.00
2018-09-17T02:48:59.871Z,11.45
2018-09-17T02:51:28.074Z,11.73
2018-09-17T02:53:56.277Z,11.05
2018-09-17T02:56:24.474Z,11.38
2018-09-17T02:58:52.844Z,11.28
2018-09-17T03:01:21.111Z,11.28
2018-09-17T03:03:49.704Z,9.95
2018-09-17T03:06:17.963Z,11.12
2018-09-17T03:08:46.270Z,10.93
2018-09-17T03:11:14.509Z,11.33
2018-09-17T03:13:42.689Z,10.88
2018-09-17T03:16:10.939Z,10.63
2018-09-17T03:18:49.411Z,10.50
2018-09-17T03:21:17.597Z,11.38
2018-09-17T03:23:45.798Z,11.10
2018-09-17T03:26:13.982Z,11.35
2018-09-17T03:28:42.162Z,10.50
2018-09-17T03:31:10.443Z,11.05
2018-09-17T03:33:38.630Z,10.63
2018-09-17T03:36:06.861Z,11.35
2018-09-17T03:38:44.804Z,11.70
2018-09-17T03:41:13.682Z,12.10
2018-09-17T03:43:45.440Z,11.85
2018-09-17T03:46:13.717Z,12.93
2018-09-17T03:48:42.107Z,13.62
2018-09-17T03:51:10.891Z,13.55
2018-09-17T03:53:39.300Z,11.57
2018-09-17T03:56:07.481Z,12.30
2018-09-17T03:58:35.700Z,10.75
2018-09-17T04:01:04.349Z,11.83
2018-09-17T04:03:32.614Z,11.97
2018-09-17T04:06:00.825Z,11.73
2018-09-17T04:08:30.301Z,11.27
2018-09-17T04:10:58.544Z,10.67
2018-09-17T04:13:26.768Z,11.53
2018-09-17T04:15:54.961Z,10.43
2018-09-17T04:18:23.158Z,10.20
2018-09-17T04:20:51.363Z,11.45
2018-09-17T04:23:36.333Z,11.20
2018-09-17T04:26:06.695Z,10.10
2018-09-17T04:28:35.543Z,10.95
2018-09-17T04:31:03.804Z,10.38
2018-09-17T04:33:35.891Z,11.60
2018-09-17T04:36:04.078Z,11.37
2018-09-17T04:38:32.315Z,11.40
2018-09-17T04:41:00.522Z,11.07
2018-09-17T04:43:28.726Z,12.13
2018-09-17T04:45:56.908Z,11.90
2018-09-17T04:48:25.090Z,11.77
2018-09-17T04:50:53.286Z,12.17
2018-09-17T04:53:21.513Z,10.87
2018-09-17T04:55:49.788Z,11.00
2018-09-17T04:58:17.973Z,10.53
2018-09-17T05:00:46.170Z,9.93
2018-09-17T05:03:14.428Z,10.45
2018-09-17T05:05:42.620Z,10.97
2018-09-17T05:08:10.823Z,10.30
2018-09-17T05:10:39.019Z,10.50
2018-09-17T05:13:07.301Z,11.90
2018-09-17T05:15:35.432Z,11.87
2018-09-17T05:18:03.627Z,10.80
2018-09-17T05:20:32.156Z,10.53
2018-09-17T05:23:00.319Z,11.73
2018-09-17T05:25:28.529Z,12.40
2018-09-17T05:27:56.757Z,11.47
2018-09-17T05:30:24.974Z,11.20
2018-09-17T05:32:53.157Z,11.13
2018-09-17T05:35:21.352Z,12.13
2018-09-17T05:37:49.549Z,11.07
2018-09-17T05:40:17.881Z,11.90
2018-09-17T05:42:46.093Z,10.90
2018-09-17T05:45:14.397Z,10.97
2018-09-17T05:47:42.595Z,11.20
2018-09-17T05:50:10.801Z,11.40
2018-09-17T05:52:38.984Z,11.13
2018-09-17T05:55:07.213Z,11.07
2018-09-17T05:57:35.379Z,11.63
2018-09-17T06:00:03.656Z,11.40
2018-09-17T06:02:31.865Z,11.03
2018-09-17T06:05:00.100Z,11.65
2018-09-17T06:07:28.294Z,11.23
2018-09-17T06:09:56.489Z,11.95
2018-09-17T06:12:24.690Z,12.07
2018-09-17T06:14:52.862Z,11.57
2018-09-17T06:17:21.121Z,11.25
2018-09-17T06:19:49.321Z,11.63
2018-09-17T06:22:17.562Z,12.13
2018-09-17T06:24:45.788Z,11.47
2018-09-17T06:27:13.984Z,11.33
2018-09-17T06:29:42.207Z,11.60
2018-09-17T06:32:10.419Z,11.73
2018-09-17T06:34:38.615Z,11.85
2018-09-17T06:37:06.808Z,11.97
2018-09-17T06:39:35.049Z,12.93
2018-09-17T06:42:03.266Z,13.93
2018-09-17T06:44:31.516Z,13.40
2018-09-17T06:46:59.732Z,12.00
2018-09-17T06:49:27.930Z,12.45
2018-09-17T06:51:56.171Z,13.05
2018-09-17T06:54:24.395Z,12.88
2018-09-17T06:56:52.621Z,13.55
2018-09-17T06:59:20.823Z,12.70
2018-09-17T07:01:49.052Z,13.65
2018-09-17T07:04:17.255Z,13.78
2018-09-17T07:06:45.494Z,14.35
2018-09-17T07:09:13.699Z,14.65
2018-09-17T07:11:41.925Z,14.23
2018-09-17T07:14:10.406Z,15.03
2018-09-17T07:16:38.728Z,14.95
2018-09-17T07:19:06.944Z,13.22
2018-09-17T07:21:35.157Z,13.53
2018-09-17T07:24:03.363Z,13.93
2018-09-17T07:26:31.625Z,13.78
2018-09-17T07:29:00.423Z,14.70
2018-09-17T07:31:28.634Z,14.43
2018-09-17T07:33:56.854Z,13.90
2018-09-17T07:36:25.105Z,13.83
2018-09-17T07:38:53.270Z,13.32
2018-09-17T07:41:21.459Z,13.18
2018-09-17T07:43:49.655Z,14.50
2018-09-17T07:46:17.841Z,13.43
2018-09-17T07:48:46.061Z,14.45
2018-09-17T07:51:14.350Z,14.15
2018-09-17T07:53:42.539Z,14.35
2018-09-17T07:56:10.779Z,14.20
2018-09-17T07:58:38.978Z,14.28
2018-09-17T08:01:07.182Z,14.70
2018-09-17T08:03:35.360Z,14.00
2018-09-17T08:06:03.557Z,14.98
2018-09-17T08:08:32.212Z,14.25
2018-09-17T08:11:00.383Z,15.53
2018-09-17T08:13:28.587Z,14.45
2018-09-17T08:15:56.768Z,14.78
2018-09-17T08:18:25.001Z,13.83
2018-09-17T08:20:53.198Z,17.17
2018-09-17T08:23:21.393Z,13.72
2018-09-17T08:25:49.605Z,14.03
2018-09-17T08:28:17.834Z,14.95
2018-09-17T08:30:46.010Z,15.45
2018-09-17T08:33:14.204Z,14.58
2018-09-17T08:35:42.402Z,14.68
2018-09-17T08:38:10.691Z,15.23
2018-09-17T08:40:38.803Z,13.43
2018-09-17T08:43:07.116Z,13.78
2018-09-17T08:45:35.342Z,13.55
2018-09-17T08:48:03.478Z,13.05
2018-09-17T08:50:31.672Z,13.40
2018-09-17T08:52:59.958Z,12.37
2018-09-17T08:55:33.502Z,13.18
2018-09-17T08:58:07.193Z,13.70
2018-09-17T09:02:47.816Z,12.05
2018-09-17T09:05:21.398Z,12.47
2018-09-17T09:07:52.072Z,11.45
2018-09-17T09:10:26.242Z,10.68
2018-09-17T09:14:00.315Z,14.73
2018-09-17T09:16:28.574Z,12.07
2018-09-17T09:18:56.781Z,12.88
2018-09-17T09:21:24.967Z,12.18
2018-09-17T09:23:53.189Z,9.63
2018-09-17T09:26:21.370Z,14.93
2018-09-17T09:28:49.576Z,11.45
2018-09-17T09:31:17.770Z,12.18
2018-09-17T09:33:46.008Z,9.35
2018-09-17T09:36:14.217Z,11.55
2018-09-17T09:38:42.418Z,11.50
2018-09-17T09:41:10.617Z,12.50
2018-09-17T09:43:38.839Z,9.60
2018-09-17T09:46:07.030Z,8.68
2018-09-17T09:48:35.241Z,9.23
2018-09-17T09:51:03.429Z,10.23
2018-09-17T09:53:31.649Z,8.50
2018-09-17T09:55:59.857Z,8.80
2018-09-17T09:58:28.099Z,7.80
2018-09-17T10:01:01.790Z,7.83
2018-09-17T10:03:34.233Z,8.23
2018-09-17T10:06:02.847Z,9.10
2018-09-17T10:08:31.057Z,7.60
2018-09-17T10:11:04.727Z,8.15
2018-09-17T10:13:38.483Z,9.53
2018-09-17T10:16:12.189Z,6.70
2018-09-17T10:18:45.879Z,7.03
2018-09-17T10:21:14.049Z,7.62
2018-09-17T10:23:42.246Z,7.28
2018-09-17T10:26:10.385Z,8.13
2018-09-17T10:28:38.567Z,7.17
2018-09-17T10:31:06.763Z,6.78
2018-09-17T10:33:34.956Z,5.83
2018-09-17T10:36:03.148Z,6.00
2018-09-17T10:38:31.326Z,5.62
2018-09-17T10:40:59.506Z,6.90
2018-09-17T10:43:27.688Z,6.12
2018-09-17T10:45:55.880Z,5.97
2018-09-17T10:48:24.060Z,5.10
2018-09-17T10:50:52.272Z,8.40
2018-09-17T10:53:20.450Z,6.80
2018-09-17T10:55:48.655Z,6.22
2018-09-17T10:58:16.850Z,6.15
2018-09-17T11:00:45.335Z,6.20
2018-09-17T11:03:13.512Z,6.03
2018-09-17T11:05:41.699Z,5.97
2018-09-17T11:08:09.947Z,6.35
2018-09-17T11:10:38.094Z,4.90
2018-09-17T11:13:06.260Z,4.97
2018-09-17T11:15:39.739Z,4.05
2018-09-17T11:18:07.948Z,4.33
2018-09-17T11:20:36.121Z,3.85
2018-09-17T11:23:04.339Z,6.25
2018-09-17T11:25:32.643Z,4.42
2018-09-17T11:28:00.830Z,4.15
2018-09-17T11:30:29.011Z,5.03
2018-09-17T11:32:57.196Z,6.20
2018-09-17T11:35:25.405Z,4.17
2018-09-17T11:37:53.588Z,5.20
2018-09-17T11:40:22.027Z,5.08
2018-09-17T11:42:50.219Z,3.85
2018-09-17T11:45:18.556Z,4.22
2018-09-17T11:47:46.750Z,4.42
2018-09-17T11:50:14.957Z,4.65
2018-09-17T11:52:43.159Z,5.87
2018-09-17T11:55:11.471Z,4.17
2018-09-17T11:57:39.678Z,5.05
2018-09-17T12:00:07.880Z,5.37
2018-09-17T12:02:36.830Z,3.85
2018-09-17T12:05:07.049Z,3.65
2018-09-17T12:07:42.421Z,3.90
2018-09-17T12:10:11.275Z,3.87
2018-09-17T12:12:39.873Z,3.33
2018-09-17T12:15:08.774Z,4.12
2018-09-17T12:17:37.078Z,3.42
2018-09-17T12:20:05.360Z,5.85
2018-09-17T12:22:33.563Z,3.55
2018-09-17T12:25:01.770Z,3.77
2018-09-17T12:27:29.979Z,3.08
2018-09-17T12:29:58.167Z,3.50
2018-09-17T12:32:26.370Z,3.72
2018-09-17T12:34:54.550Z,3.47
2018-09-17T12:37:22.742Z,3.20
2018-09-17T12:39:50.957Z,3.47
2018-09-17T12:42:19.168Z,3.30
2018-09-17T12:44:47.362Z,3.00
2018-09-17T12:47:15.555Z,3.08
2018-09-17T12:49:43.778Z,3.30
2018-09-17T12:52:12.008Z,3.80
2018-09-17T12:54:40.230Z,3.77
2018-09-17T12:57:08.479Z,3.20
2018-09-17T12:59:36.653Z,3.15
2018-09-17T13:02:04.864Z,3.72
2018-09-17T13:04:33.059Z,3.30
2018-09-17T13:07:01.283Z,3.15
2018-09-17T13:09:29.467Z,3.05
2018-09-17T13:11:57.672Z,4.05
2018-09-17T13:14:25.877Z,2.83
2018-09-17T13:16:54.075Z,3.25
2018-09-17T13:19:22.263Z,3.50
2018-09-17T13:21:50.476Z,2.95
2018-09-17T13:24:18.684Z,2.98
2018-09-17T13:26:46.920Z,2.87
2018-09-17T13:29:15.099Z,3.45
2018-09-17T13:31:43.412Z,2.95
2018-09-17T13:34:11.574Z,2.67
2018-09-17T13:36:39.763Z,2.67
2018-09-17T13:39:07.991Z,2.58
2018-09-17T13:41:36.212Z,2.90
2018-09-17T13:44:04.498Z,3.20
2018-09-17T13:46:32.631Z,5.22
2018-09-17T13:49:00.858Z,3.05
2018-09-17T13:51:29.038Z,2.55
2018-09-17T13:53:57.242Z,3.20
2018-09-17T13:56:25.426Z,4.05
2018-09-17T13:58:53.639Z,3.65
2018-09-17T14:01:21.854Z,2.67
2018-09-17T14:03:50.278Z,2.80
2018-09-17T14:06:18.480Z,3.25
2018-09-17T14:08:46.692Z,4.85
2018-09-17T14:11:14.888Z,2.90
2018-09-17T14:13:43.110Z,2.70
2018-09-17T14:16:11.290Z,2.52
2018-09-17T14:18:39.772Z,2.80
2018-09-17T14:21:08.454Z,4.85
2018-09-17T14:23:36.734Z,2.98
2018-09-17T14:26:04.974Z,2.60
2018-09-17T14:28:33.136Z,2.65
2018-09-17T14:31:01.324Z,3.77
2018-09-17T14:33:34.725Z,2.98
2018-09-17T14:36:02.930Z,3.22
2018-09-17T14:38:31.141Z,2.95
2018-09-17T14:40:59.367Z,2.70
2018-09-17T14:43:27.583Z,2.55
2018-09-17T14:45:55.953Z,2.60
2018-09-17T14:48:24.287Z,2.80
2018-09-17T14:50:52.828Z,3.70
2018-09-17T14:53:21.132Z,2.70
2018-09-17T14:55:49.225Z,2.83
2018-09-17T14:58:17.520Z,5.20
2018-09-17T15:00:45.609Z,2.75
2018-09-17T15:03:13.820Z,4.75
2018-09-17T15:05:42.018Z,2.72
2018-09-17T15:08:10.384Z,2.62
2018-09-17T15:10:38.531Z,4.05
2018-09-17T15:13:06.698Z,2.40
2018-09-17T15:15:39.134Z,2.42
2018-09-17T15:18:07.311Z,2.80
2018-09-17T15:20:35.529Z,2.87
2018-09-17T15:23:03.711Z,2.95
2018-09-17T15:25:31.922Z,2.40
2018-09-17T15:28:00.134Z,2.75
2018-09-17T15:30:28.343Z,2.77
2018-09-17T15:32:56.533Z,2.90
2018-09-17T15:35:24.754Z,3.52
2018-09-17T15:37:52.947Z,2.58
2018-09-17T15:40:21.183Z,2.67
2018-09-17T15:42:49.354Z,2.70
2018-09-17T15:45:17.559Z,2.90
2018-09-17T15:47:45.747Z,3.17
2018-09-17T15:50:13.982Z,2.60
2018-09-17T15:52:42.119Z,3.62
2018-09-17T15:55:10.410Z,5.70
2018-09-17T15:57:38.591Z,2.98
2018-09-17T16:00:07.131Z,2.87
2018-09-17T16:02:35.486Z,3.45
2018-09-17T16:05:03.652Z,4.35
2018-09-17T16:07:31.822Z,3.90
2018-09-17T16:10:00.044Z,3.20
2018-09-17T16:12:28.255Z,3.75
2018-09-17T16:14:56.460Z,4.62
2018-09-17T16:17:25.471Z,4.53
2018-09-17T16:19:53.701Z,3.72
2018-09-17T16:22:21.840Z,3.55
2018-09-17T16:24:50.051Z,3.75
2018-09-17T16:27:18.332Z,4.15
2018-09-17T16:29:46.536Z,3.15
2018-09-17T16:32:14.696Z,2.83
2018-09-17T16:34:43.328Z,2.62
2018-09-17T16:37:11.737Z,3.05
2018-09-17T16:39:40.065Z,3.52
2018-09-17T16:42:08.266Z,2.92
2018-09-17T16:44:36.467Z,3.33
2018-09-17T16:47:04.763Z,4.90
2018-09-17T16:49:32.921Z,2.95
2018-09-17T16:52:01.226Z,4.40
2018-09-17T16:54:29.526Z,3.77
2018-09-17T16:56:57.803Z,4.08
2018-09-17T16:59:26.008Z,3.08
2018-09-17T17:01:54.216Z,3.00
2018-09-17T17:04:22.415Z,3.42
2018-09-17T17:06:50.632Z,4.55
2018-09-17T17:09:18.941Z,6.45
2018-09-17T17:11:47.157Z,3.85
2018-09-17T17:14:15.359Z,4.25
2018-09-17T17:16:43.623Z,4.50
2018-09-17T17:19:11.852Z,2.83
2018-09-17T17:21:40.122Z,3.00
2018-09-17T17:24:08.357Z,3.30
2018-09-17T17:26:36.574Z,3.50
2018-09-17T17:29:04.763Z,5.35
2018-09-17T17:31:33.065Z,4.22
2018-09-17T17:34:01.355Z,4.15
2018-09-17T17:36:29.530Z,2.70
2018-09-17T17:38:57.733Z,3.47
2018-09-17T17:41:25.940Z,5.25
2018-09-17T17:43:54.195Z,3.37
2018-09-17T17:46:22.422Z,4.25
2018-09-17T17:48:50.731Z,3.80
2018-09-17T17:51:19.002Z,5.22
2018-09-17T17:53:47.291Z,4.60
2018-09-17T17:56:15.622Z,3.17
2018-09-17T17:58:43.902Z,4.15
2018-09-17T18:01:12.303Z,2.98
2018-09-17T18:03:40.521Z,4.05
2018-09-17T18:06:08.732Z,6.28
2018-09-17T18:08:37.005Z,3.80
2018-09-17T18:11:05.339Z,4.97
2018-09-17T18:13:33.753Z,3.67
2018-09-17T18:16:02.056Z,6.10
2018-09-17T18:18:30.310Z,5.65
2018-09-17T18:20:58.558Z,4.45
2018-09-17T18:23:26.785Z,5.10
2018-09-17T18:25:55.072Z,6.87
2018-09-17T18:28:23.337Z,6.08
2018-09-17T18:30:51.582Z,6.30
2018-09-17T18:33:19.909Z,6.80
2018-09-17T18:35:48.573Z,3.62
2018-09-17T18:38:16.849Z,5.22
2018-09-17T18:40:45.452Z,8.00
2018-09-17T18:43:13.748Z,4.65
2018-09-17T18:45:43.408Z,4.03
2018-09-17T18:48:11.739Z,5.03
2018-09-17T18:50:42.049Z,5.42
2018-09-17T18:53:10.352Z,6.65
2018-09-17T18:55:41.275Z,4.55
2018-09-17T18:58:09.570Z,6.72
2018-09-17T19:00:42.680Z,5.58
2018-09-17T19:03:10.973Z,6.75
2018-09-17T19:05:39.378Z,5.15
2018-09-17T19:08:09.675Z,4.75
2018-09-17T19:10:38.110Z,6.80
2018-09-17T19:13:06.467Z,5.90
2018-09-17T19:15:40.241Z,6.00
2018-09-17T19:18:18.125Z,4.70
2018-09-17T19:20:47.416Z,5.30
2018-09-17T19:23:20.963Z,3.35
2018-09-17T19:25:50.388Z,4.05
2018-09-17T19:28:23.980Z,9.65
2018-09-17T19:30:52.198Z,9.23
2018-09-17T19:33:20.431Z,8.68
2018-09-17T19:35:48.691Z,6.10
2018-09-17T19:38:22.557Z,6.05
2018-09-17T19:40:50.755Z,4.72
2018-09-17T19:43:19.005Z,4.80
2018-09-17T19:45:52.603Z,6.05
2018-09-17T19:48:20.920Z,4.67
2018-09-17T19:50:54.608Z,6.78
2018-09-17T19:53:22.832Z,5.53
2018-09-17T19:55:51.117Z,6.22
2018-09-17T19:58:24.826Z,4.17
2018-09-17T20:00:53.184Z,5.35
2018-09-17T20:03:21.381Z,4.60
2018-09-17T20:05:54.964Z,4.53
2018-09-17T20:08:23.237Z,4.33
2018-09-17T20:10:51.462Z,5.58
2018-09-17T20:13:19.723Z,4.95
2018-09-17T20:15:48.026Z,5.00
2018-09-17T20:18:16.315Z,5.95
2018-09-17T20:20:44.568Z,4.12
2018-09-17T20:23:12.889Z,5.05
2018-09-17T20:25:41.170Z,7.87
2018-09-17T20:28:09.436Z,4.58
2018-09-17T20:30:37.700Z,4.60
2018-09-17T20:33:05.971Z,5.08
2018-09-17T20:35:34.252Z,4.75
2018-09-17T20:38:02.508Z,5.42
2018-09-17T20:40:30.809Z,5.30
2018-09-17T20:42:59.036Z,4.72
2018-09-17T20:45:27.278Z,10.95
2018-09-17T20:47:55.557Z,7.25
2018-09-17T20:50:23.884Z,6.17
2018-09-17T20:52:52.087Z,5.95
2018-09-17T20:55:20.426Z,5.20
2018-09-17T20:57:48.603Z,5.65
2018-09-17T21:00:16.827Z,5.85
2018-09-17T21:02:45.034Z,6.33
2018-09-17T21:05:13.281Z,9.23
2018-09-17T21:07:41.546Z,6.97
2018-09-17T21:10:09.809Z,5.55
2018-09-17T21:12:38.207Z,5.65
2018-09-17T21:15:06.520Z,5.00
2018-09-17T21:17:34.783Z,6.10
2018-09-17T21:20:03.019Z,6.03
2018-09-17T21:22:31.283Z,5.83
2018-09-17T21:24:59.554Z,5.75
2018-09-17T21:27:27.761Z,5.40
2018-09-17T21:29:56.368Z,4.78
2018-09-17T21:32:24.605Z,6.53
2018-09-17T21:34:52.927Z,5.37
2018-09-17T21:37:21.245Z,6.08
2018-09-17T21:39:49.397Z,5.33
2018-09-17T21:42:17.649Z,5.80
2018-09-17T21:44:45.905Z,5.20
2018-09-17T21:47:14.144Z,5.12
2018-09-17T21:49:42.461Z,5.20
2018-09-17T21:52:10.686Z,6.03
2018-09-17T21:54:45.469Z,5.47
2018-09-17T21:57:13.736Z,6.50
2018-09-17T21:59:41.960Z,5.42
2018-09-17T22:02:10.186Z,5.55
2018-09-17T22:04:38.419Z,5.15
2018-09-17T22:07:06.695Z,5.67
2018-09-17T22:09:34.904Z,6.03
2018-09-17T22:12:03.140Z,4.75
2018-09-17T22:14:31.362Z,6.20
2018-09-17T22:16:59.579Z,5.90
2018-09-17T22:19:27.800Z,5.78
2018-09-17T22:21:56.001Z,5.78
2018-09-17T22:24:24.222Z,5.25
2018-09-17T22:26:52.483Z,6.15
2018-09-17T22:29:20.707Z,6.37
2018-09-17T22:31:48.974Z,8.10
2018-09-17T22:34:17.216Z,7.60
2018-09-17T22:36:45.435Z,6.00
2018-09-17T22:39:13.687Z,5.58
2018-09-17T22:41:41.935Z,6.22
2018-09-17T22:44:10.170Z,6.60
2018-09-17T22:46:38.440Z,6.62
2018-09-17T22:49:07.301Z,6.15
2018-09-17T22:51:35.541Z,6.97
2018-09-17T22:54:03.805Z,5.92
2018-09-17T22:56:32.041Z,5.50
2018-09-17T22:59:00.284Z,6.35
2018-09-17T23:01:28.529Z,7.62
2018-09-17T23:03:56.769Z,6.15
2018-09-17T23:06:25.015Z,6.15
2018-09-17T23:08:53.276Z,6.17
2018-09-17T23:11:21.501Z,6.20
2018-09-17T23:13:49.759Z,6.53
2018-09-17T23:16:18.029Z,6.03
2018-09-17T23:18:46.268Z,7.45
2018-09-17T23:21:14.500Z,6.70
2018-09-17T23:23:42.757Z,7.22
2018-09-17T23:26:11.004Z,6.58
2018-09-17T23:28:39.306Z,7.45
2018-09-17T23:31:07.507Z,6.83
2018-09-17T23:33:35.742Z,8.53
2018-09-17T23:36:06.986Z,6.83
2018-09-17T23:38:35.297Z,9.00
2018-09-17T23:41:03.494Z,8.03
2018-09-17T23:43:31.740Z,7.20
2018-09-17T23:45:59.920Z,7.55
2018-09-17T23:48:28.149Z,7.12
2018-09-17T23:50:56.398Z,7.10
2018-09-17T23:53:24.657Z,6.67
2018-09-17T23:55:52.865Z,7.03
2018-09-17T23:58:21.071Z,7.40
